createdAt,value
2019-03-09T00:00:49.288Z,50.05
2019-03-09T00:01:49.222Z,50.05
2019-03-09T00:02:49.208Z,50.15
2019-03-09T00:03:49.231Z,49.75
2019-03-09T00:04:49.188Z,49.75
2019-03-09T00:05:49.175Z,49.95
2019-03-09T00:06:49.159Z,49.93
2019-03-09T00:07:49.156Z,49.95
2019-03-09T00:08:49.226Z,49.85
2019-03-09T00:09:49.138Z,49.95
2019-03-09T00:10:49.124Z,49.95
2019-03-09T00:11:49.119Z,50.25
2019-03-09T00:12:49.098Z,50.25
2019-03-09T00:13:49.124Z,50.15
2019-03-09T00:14:49.082Z,50.02
2019-03-09T00:15:49.072Z,50.05
2019-03-09T00:16:55.939Z,49.95
2019-03-09T00:17:49.046Z,50.15
2019-03-09T00:18:49.075Z,50.05
2019-03-09T00:19:49.032Z,50.05
2019-03-09T00:20:49.011Z,49.55
2019-03-09T00:21:49.015Z,50.13
2019-03-09T00:22:48.995Z,49.95
2019-03-09T00:23:48.983Z,50.05
2019-03-09T00:24:48.995Z,50.56
2019-03-09T00:25:48.979Z,50.45
2019-03-09T00:26:48.996Z,50.65
2019-03-09T00:27:48.944Z,50.96
2019-03-09T00:28:48.931Z,50.76
2019-03-09T00:29:48.947Z,50.65
2019-03-09T00:30:48.915Z,51.06
2019-03-09T00:31:48.916Z,50.25
2019-03-09T00:32:48.897Z,50.05
2019-03-09T00:33:48.886Z,50.15
2019-03-09T00:34:48.866Z,50.76
2019-03-09T00:35:48.852Z,50.76
2019-03-09T00:36:48.896Z,49.95
2019-03-09T00:37:48.834Z,50.35
2019-03-09T00:38:48.814Z,50.25
2019-03-09T00:39:48.802Z,49.85
2019-03-09T00:40:48.804Z,49.95
2019-03-09T00:41:48.819Z,49.85
2019-03-09T00:42:48.808Z,49.65
2019-03-09T00:43:48.772Z,50.45
2019-03-09T00:44:48.780Z,50.25
2019-03-09T00:45:48.745Z,49.75
2019-03-09T00:46:48.758Z,50.35
2019-03-09T00:47:48.728Z,50.56
2019-03-09T00:48:48.718Z,50.56
2019-03-09T00:49:48.713Z,50.56
2019-03-09T00:50:48.694Z,50.96
2019-03-09T00:51:48.709Z,50.96
2019-03-09T00:52:48.665Z,50.96
2019-03-09T00:53:48.654Z,50.56
2019-03-09T00:54:48.652Z,50.56
2019-03-09T00:55:48.670Z,50.85
2019-03-09T00:56:48.621Z,50.76
2019-03-09T00:57:48.618Z,50.76
2019-03-09T00:58:48.608Z,50.65
2019-03-09T00:59:48.593Z,50.45
2019-03-09T01:00:48.618Z,50.76
2019-03-09T01:01:48.604Z,50.76
2019-03-09T01:02:48.562Z,50.65
2019-03-09T01:03:48.564Z,50.35
2019-03-09T01:04:48.535Z,50.27
2019-03-09T01:05:48.584Z,50.56
2019-03-09T01:06:48.517Z,50.35
2019-03-09T01:07:48.506Z,50.45
2019-03-09T01:08:48.501Z,50.35
2019-03-09T01:09:48.490Z,50.45
2019-03-09T01:10:48.483Z,50.25
2019-03-09T01:11:48.490Z,50.45
2019-03-09T01:12:48.453Z,50.05
2019-03-09T01:13:48.451Z,51.06
2019-03-09T01:14:48.485Z,50.85
2019-03-09T01:15:48.420Z,51.16
2019-03-09T01:16:48.440Z,50.05
2019-03-09T01:17:48.432Z,50.15
2019-03-09T01:18:48.384Z,50.56
2019-03-09T01:19:48.376Z,50.17
2019-03-09T01:20:48.365Z,51.16
2019-03-09T01:21:48.381Z,50.96
2019-03-09T01:22:48.350Z,50.65
2019-03-09T01:23:48.336Z,50.76
2019-03-09T01:24:48.357Z,51.06
2019-03-09T01:25:48.324Z,50.96
2019-03-09T01:26:48.329Z,50.65
2019-03-09T01:27:48.304Z,51.16
2019-03-09T01:28:48.289Z,51.06
2019-03-09T01:29:48.265Z,51.16
2019-03-09T01:30:48.257Z,50.96
2019-03-09T01:31:48.284Z,51.06
2019-03-09T01:32:48.235Z,50.96
2019-03-09T01:33:48.232Z,50.56
2019-03-09T01:34:48.226Z,50.88
2019-03-09T01:35:48.211Z,51.46
2019-03-09T01:36:48.220Z,51.56
2019-03-09T01:37:48.182Z,51.46
2019-03-09T01:38:48.176Z,50.56
2019-03-09T01:39:48.168Z,50.85
2019-03-09T01:40:48.174Z,51.56
2019-03-09T01:41:48.140Z,51.48
2019-03-09T01:42:48.130Z,51.48
2019-03-09T01:43:48.120Z,51.59
2019-03-09T01:44:48.110Z,51.56
2019-03-09T01:45:48.129Z,51.46
2019-03-09T01:46:48.085Z,51.46
2019-03-09T01:47:48.074Z,51.06
2019-03-09T01:48:48.101Z,51.66
2019-03-09T01:49:48.079Z,51.56
2019-03-09T01:50:48.045Z,51.66
2019-03-09T01:51:48.047Z,51.79
2019-03-09T01:52:48.053Z,51.86
2019-03-09T01:53:48.019Z,51.59
2019-03-09T01:54:48.035Z,52.17
2019-03-09T01:55:47.987Z,51.86
2019-03-09T01:56:47.984Z,51.76
2019-03-09T01:57:47.965Z,51.99
2019-03-09T01:58:48.014Z,51.89
2019-03-09T01:59:47.974Z,52.09
2019-03-09T02:00:47.937Z,51.97
2019-03-09T02:01:47.930Z,51.86
2019-03-09T02:02:47.909Z,52.06
2019-03-09T02:03:47.931Z,51.97
2019-03-09T02:04:47.910Z,52.17
2019-03-09T02:05:47.881Z,52.19
2019-03-09T02:06:47.883Z,51.99
2019-03-09T02:07:47.862Z,52.19
2019-03-09T02:08:47.884Z,51.97
2019-03-09T02:09:47.872Z,52.19
2019-03-09T02:10:47.828Z,51.99
2019-03-09T02:11:47.822Z,52.39
2019-03-09T02:12:47.805Z,52.09
2019-03-09T02:13:47.843Z,51.97
2019-03-09T02:14:47.796Z,51.99
2019-03-09T02:15:47.770Z,52.17
2019-03-09T02:16:47.769Z,51.97
2019-03-09T02:17:47.763Z,51.99
2019-03-09T02:18:47.739Z,51.97
2019-03-09T02:19:47.775Z,52.09
2019-03-09T02:20:47.715Z,51.97
2019-03-09T02:21:47.709Z,51.86
2019-03-09T02:22:47.694Z,51.99
2019-03-09T02:23:47.689Z,51.76
2019-03-09T02:24:47.733Z,52.09
2019-03-09T02:25:47.666Z,51.89
2019-03-09T02:26:47.661Z,51.76
2019-03-09T02:27:47.640Z,51.99
2019-03-09T02:28:47.633Z,52.09
2019-03-09T02:29:47.661Z,51.86
2019-03-09T02:30:47.622Z,51.66
2019-03-09T02:31:47.610Z,51.56
2019-03-09T02:32:47.600Z,52.57
2019-03-09T02:33:47.620Z,52.17
2019-03-09T02:34:47.609Z,52.19
2019-03-09T02:35:47.559Z,51.68
2019-03-09T02:36:47.555Z,52.49
2019-03-09T02:37:47.569Z,52.59
2019-03-09T02:38:47.523Z,52.39
2019-03-09T02:39:47.564Z,52.59
2019-03-09T02:40:47.504Z,52.69
2019-03-09T02:41:47.496Z,52.67
2019-03-09T02:42:47.482Z,52.57
2019-03-09T02:43:47.475Z,52.67
2019-03-09T02:44:47.559Z,52.59
2019-03-09T02:45:47.466Z,53.00
2019-03-09T02:46:47.500Z,52.80
2019-03-09T02:47:47.453Z,52.77
2019-03-09T02:48:47.414Z,52.59
2019-03-09T02:49:47.459Z,52.80
2019-03-09T02:50:47.401Z,52.69
2019-03-09T02:51:47.395Z,53.30
2019-03-09T02:52:47.386Z,52.89
2019-03-09T02:53:47.379Z,52.87
2019-03-09T02:54:47.365Z,52.39
2019-03-09T02:55:47.419Z,53.30
2019-03-09T02:56:47.347Z,52.80
2019-03-09T02:57:47.320Z,52.89
2019-03-09T02:58:47.320Z,52.89
2019-03-09T02:59:47.303Z,53.30
2019-03-09T03:00:47.334Z,53.09
2019-03-09T03:01:47.280Z,53.20
2019-03-09T03:02:47.265Z,53.00
2019-03-09T03:03:47.260Z,53.00
2019-03-09T03:04:47.251Z,53.09
2019-03-09T03:05:47.261Z,53.00
2019-03-09T03:06:47.234Z,53.07
2019-03-09T03:07:47.214Z,53.09
2019-03-09T03:08:47.221Z,53.09
2019-03-09T03:09:47.203Z,53.00
2019-03-09T03:10:47.226Z,52.89
2019-03-09T03:11:47.172Z,52.89
2019-03-09T03:12:47.168Z,53.30
2019-03-09T03:13:47.146Z,53.17
2019-03-09T03:14:47.163Z,53.09
2019-03-09T03:15:47.234Z,53.17
2019-03-09T03:16:47.117Z,53.27
2019-03-09T03:17:47.114Z,53.00
2019-03-09T03:18:47.093Z,52.97
2019-03-09T03:19:47.090Z,53.20
2019-03-09T03:20:47.113Z,53.60
2019-03-09T03:21:47.074Z,53.50
2019-03-09T03:22:47.052Z,53.50
2019-03-09T03:23:47.049Z,53.27
2019-03-09T03:24:47.057Z,53.50
2019-03-09T03:25:47.060Z,53.38
2019-03-09T03:26:47.015Z,53.30
2019-03-09T03:27:46.998Z,53.70
2019-03-09T03:28:46.988Z,53.60
2019-03-09T03:29:46.977Z,53.60
2019-03-09T03:30:46.975Z,53.50
2019-03-09T03:31:46.983Z,53.60
2019-03-09T03:32:46.954Z,53.70
2019-03-09T03:33:46.941Z,53.60
2019-03-09T03:34:46.937Z,53.70
2019-03-09T03:35:46.915Z,53.67
2019-03-09T03:36:46.956Z,53.50
2019-03-09T03:37:46.896Z,53.50
2019-03-09T03:38:46.917Z,53.40
2019-03-09T03:39:46.877Z,53.38
2019-03-09T03:40:46.857Z,53.40
2019-03-09T03:41:46.875Z,53.40
2019-03-09T03:42:46.842Z,54.00
2019-03-09T03:43:46.834Z,54.00
2019-03-09T03:44:46.825Z,53.40
2019-03-09T03:45:46.831Z,54.21
2019-03-09T03:46:46.833Z,53.50
2019-03-09T03:47:46.787Z,53.50
2019-03-09T03:48:46.779Z,53.70
2019-03-09T03:49:46.768Z,53.40
2019-03-09T03:50:46.821Z,53.27
2019-03-09T03:51:46.801Z,53.27
2019-03-09T03:52:46.729Z,53.60
2019-03-09T03:53:46.728Z,53.50
2019-03-09T03:54:46.712Z,53.60
2019-03-09T03:55:46.698Z,53.47
2019-03-09T03:56:47.500Z,53.50
2019-03-09T03:57:46.682Z,53.70
2019-03-09T03:58:46.671Z,53.60
2019-03-09T03:59:46.658Z,53.58
2019-03-09T04:00:46.657Z,53.60
2019-03-09T04:01:46.689Z,53.47
2019-03-09T04:02:46.618Z,53.70
2019-03-09T04:03:46.617Z,53.50
2019-03-09T04:04:46.606Z,53.70
2019-03-09T04:05:46.593Z,53.80
2019-03-09T04:06:46.585Z,53.50
2019-03-09T04:07:46.601Z,53.50
2019-03-09T04:08:46.569Z,53.60
2019-03-09T04:09:46.577Z,53.40
2019-03-09T04:10:46.545Z,53.70
2019-03-09T04:11:46.542Z,53.40
2019-03-09T04:12:46.577Z,54.10
2019-03-09T04:13:46.505Z,53.60
2019-03-09T04:14:46.487Z,53.30
2019-03-09T04:15:46.488Z,53.40
2019-03-09T04:16:46.481Z,53.40
2019-03-09T04:17:46.504Z,53.40
2019-03-09T04:18:46.461Z,54.81
2019-03-09T04:19:46.449Z,54.10
2019-03-09T04:20:46.429Z,53.80
2019-03-09T04:21:46.409Z,54.61
2019-03-09T04:22:46.439Z,54.41
2019-03-09T04:23:46.397Z,54.00
2019-03-09T04:24:46.395Z,54.71
2019-03-09T04:25:46.370Z,54.61
2019-03-09T04:26:46.362Z,54.28
2019-03-09T04:27:46.379Z,54.00
2019-03-09T04:28:46.347Z,54.00
2019-03-09T04:29:46.327Z,53.90
2019-03-09T04:30:46.316Z,54.00
2019-03-09T04:31:46.315Z,54.10
2019-03-09T04:32:46.332Z,53.90
2019-03-09T04:33:46.286Z,53.60
2019-03-09T04:34:46.290Z,53.90
2019-03-09T04:35:46.297Z,54.00
2019-03-09T04:36:46.269Z,53.30
2019-03-09T04:37:46.245Z,53.80
2019-03-09T04:38:46.235Z,53.90
2019-03-09T04:39:46.224Z,54.30
2019-03-09T04:40:46.245Z,54.10
2019-03-09T04:41:46.199Z,54.00
2019-03-09T04:42:46.228Z,54.00
2019-03-09T04:43:46.175Z,54.41
2019-03-09T04:44:46.170Z,54.08
2019-03-09T04:45:46.158Z,54.41
2019-03-09T04:46:46.152Z,54.58
2019-03-09T04:47:46.134Z,54.38
2019-03-09T04:48:46.526Z,54.30
2019-03-09T04:49:46.123Z,54.21
2019-03-09T04:50:46.145Z,54.41
2019-03-09T04:51:46.095Z,54.50
2019-03-09T04:52:46.086Z,54.41
2019-03-09T04:53:46.117Z,54.50
2019-03-09T04:54:46.062Z,54.41
2019-03-09T04:55:46.074Z,54.68
2019-03-09T04:56:46.035Z,54.50
2019-03-09T04:57:46.033Z,54.50
2019-03-09T04:58:46.019Z,54.61
2019-03-09T04:59:46.013Z,54.21
2019-03-09T05:00:46.027Z,54.00
2019-03-09T05:01:45.983Z,54.30
2019-03-09T05:02:45.978Z,54.71
2019-03-09T05:03:45.986Z,54.50
2019-03-09T05:04:45.955Z,54.91
2019-03-09T05:05:45.941Z,54.50
2019-03-09T05:06:45.934Z,53.90
2019-03-09T05:07:45.917Z,54.41
2019-03-09T05:08:45.942Z,54.41
2019-03-09T05:09:45.893Z,54.10
2019-03-09T05:10:45.920Z,54.41
2019-03-09T05:11:45.876Z,54.21
2019-03-09T05:12:45.868Z,54.00
2019-03-09T05:13:45.890Z,53.80
2019-03-09T05:14:45.874Z,54.10
2019-03-09T05:15:45.863Z,54.50
2019-03-09T05:16:45.821Z,54.21
2019-03-09T05:17:45.815Z,54.50
2019-03-09T05:18:45.802Z,54.10
2019-03-09T05:19:45.800Z,53.90
2019-03-09T05:20:45.845Z,53.90
2019-03-09T05:21:45.768Z,54.00
2019-03-09T05:22:45.759Z,54.00
2019-03-09T05:23:45.749Z,54.10
2019-03-09T05:24:45.742Z,53.70
2019-03-09T05:25:45.752Z,53.70
2019-03-09T05:26:45.712Z,53.90
2019-03-09T05:27:45.709Z,53.70
2019-03-09T05:28:45.705Z,54.00
2019-03-09T05:29:45.759Z,53.70
2019-03-09T05:30:45.716Z,54.00
2019-03-09T05:31:45.674Z,53.90
2019-03-09T05:32:45.693Z,54.10
2019-03-09T05:33:45.663Z,53.90
2019-03-09T05:34:45.631Z,53.90
2019-03-09T05:35:45.659Z,54.50
2019-03-09T05:36:45.636Z,54.21
2019-03-09T05:37:45.600Z,53.90
2019-03-09T05:38:45.590Z,53.90
2019-03-09T05:39:45.603Z,54.10
2019-03-09T05:40:45.564Z,54.00
2019-03-09T05:41:45.580Z,54.00
2019-03-09T05:42:45.550Z,53.90
2019-03-09T05:43:45.566Z,54.10
2019-03-09T05:44:45.550Z,54.30
2019-03-09T05:45:45.539Z,54.21
2019-03-09T05:46:45.544Z,54.81
2019-03-09T05:47:45.496Z,54.21
2019-03-09T05:48:45.506Z,55.11
2019-03-09T05:49:45.485Z,55.21
2019-03-09T05:50:45.501Z,54.61
2019-03-09T05:51:45.453Z,54.91
2019-03-09T05:52:45.453Z,54.41
2019-03-09T05:53:45.467Z,54.81
2019-03-09T05:54:45.415Z,54.30
2019-03-09T05:55:45.453Z,54.41
2019-03-09T05:56:45.399Z,54.30
2019-03-09T05:57:45.397Z,54.50
2019-03-09T05:58:45.371Z,54.61
2019-03-09T05:59:45.450Z,54.61
2019-03-09T06:00:45.381Z,54.71
2019-03-09T06:01:45.344Z,54.50
2019-03-09T06:02:45.359Z,54.61
2019-03-09T06:03:45.383Z,54.81
2019-03-09T06:04:45.319Z,54.81
2019-03-09T06:05:45.333Z,54.71
2019-03-09T06:06:45.384Z,54.81
2019-03-09T06:07:45.280Z,54.81
2019-03-09T06:08:45.275Z,55.11
2019-03-09T06:09:45.260Z,55.01
2019-03-09T06:10:45.243Z,54.81
2019-03-09T06:11:45.270Z,54.61
2019-03-09T06:12:45.229Z,54.81
2019-03-09T06:13:45.214Z,54.71
2019-03-09T06:14:45.219Z,55.01
2019-03-09T06:15:45.189Z,55.01
2019-03-09T06:16:45.206Z,54.50
2019-03-09T06:17:45.199Z,54.71
2019-03-09T06:18:45.160Z,54.61
2019-03-09T06:19:45.157Z,54.61
2019-03-09T06:20:45.132Z,54.91
2019-03-09T06:21:45.153Z,55.31
2019-03-09T06:22:45.121Z,54.71
2019-03-09T06:23:45.101Z,54.61
2019-03-09T06:24:45.093Z,54.71
2019-03-09T06:25:45.119Z,54.41
2019-03-09T06:26:45.124Z,54.50
2019-03-09T06:27:45.089Z,54.10
2019-03-09T06:28:45.083Z,54.41
2019-03-09T06:29:45.074Z,54.30
2019-03-09T06:30:45.041Z,54.81
2019-03-09T06:31:46.151Z,53.90
2019-03-09T06:32:45.031Z,54.79
2019-03-09T06:33:45.004Z,54.30
2019-03-09T06:34:45.061Z,54.81
2019-03-09T06:35:44.971Z,54.91
2019-03-09T06:36:44.961Z,54.91
2019-03-09T06:37:45.017Z,55.01
2019-03-09T06:38:44.946Z,54.30
2019-03-09T06:39:44.945Z,54.91
2019-03-09T06:40:44.923Z,53.90
2019-03-09T06:41:44.910Z,54.10
2019-03-09T06:42:44.962Z,55.21
2019-03-09T06:43:44.884Z,54.71
2019-03-09T06:44:44.889Z,54.61
2019-03-09T06:45:44.869Z,54.91
2019-03-09T06:46:44.852Z,54.41
2019-03-09T06:47:44.842Z,54.81
2019-03-09T06:48:44.860Z,54.81
2019-03-09T06:49:44.822Z,54.50
2019-03-09T06:50:44.815Z,55.01
2019-03-09T06:51:44.799Z,54.81
2019-03-09T06:52:44.815Z,54.61
2019-03-09T06:53:44.809Z,55.21
2019-03-09T06:54:44.773Z,54.61
2019-03-09T06:55:44.763Z,54.91
2019-03-09T06:56:44.745Z,54.71
2019-03-09T06:57:44.769Z,55.21
2019-03-09T06:58:44.718Z,54.91
2019-03-09T06:59:44.740Z,54.61
2019-03-09T07:00:44.710Z,54.81
2019-03-09T07:01:44.715Z,54.50
2019-03-09T07:02:44.676Z,54.71
2019-03-09T07:03:44.710Z,54.50
2019-03-09T07:04:44.684Z,54.81
2019-03-09T07:05:44.656Z,54.30
2019-03-09T07:06:44.646Z,54.91
2019-03-09T07:07:44.634Z,54.30
2019-03-09T07:08:44.610Z,54.50
2019-03-09T07:09:44.605Z,54.41
2019-03-09T07:10:44.626Z,54.41
2019-03-09T07:11:44.583Z,54.81
2019-03-09T07:12:44.572Z,54.10
2019-03-09T07:13:52.437Z,54.50
2019-03-09T07:14:45.553Z,54.91
2019-03-09T07:15:45.062Z,54.30
2019-03-09T07:16:44.537Z,54.30
2019-03-09T07:17:44.534Z,55.01
2019-03-09T07:18:44.527Z,54.21
2019-03-09T07:19:44.537Z,54.41
2019-03-09T07:20:44.489Z,54.41
2019-03-09T07:21:44.475Z,54.71
2019-03-09T07:22:44.553Z,55.11
2019-03-09T07:23:44.464Z,54.61
2019-03-09T07:24:44.489Z,54.81
2019-03-09T07:25:44.439Z,55.01
2019-03-09T07:26:44.422Z,54.41
2019-03-09T07:27:44.409Z,54.91
2019-03-09T07:28:44.407Z,54.30
2019-03-09T07:29:44.436Z,54.10
2019-03-09T07:30:44.406Z,54.21
2019-03-09T07:31:44.371Z,54.81
2019-03-09T07:32:44.385Z,54.41
2019-03-09T07:33:44.348Z,54.91
2019-03-09T07:34:44.339Z,54.50
2019-03-09T07:35:44.354Z,53.90
2019-03-09T07:36:44.313Z,54.00
2019-03-09T07:37:44.308Z,55.01
2019-03-09T07:38:44.295Z,54.10
2019-03-09T07:39:44.285Z,54.81
2019-03-09T07:40:44.303Z,54.30
2019-03-09T07:41:44.257Z,54.21
2019-03-09T07:42:44.262Z,55.01
2019-03-09T07:43:44.238Z,55.01
2019-03-09T07:44:44.225Z,54.81
2019-03-09T07:45:44.256Z,54.81
2019-03-09T07:46:44.233Z,54.21
2019-03-09T07:47:44.198Z,55.01
2019-03-09T07:48:44.183Z,55.01
2019-03-09T07:49:44.178Z,55.11
2019-03-09T07:50:44.196Z,54.28
2019-03-09T07:51:44.151Z,54.71
2019-03-09T07:52:44.161Z,54.50
2019-03-09T07:53:44.138Z,54.71
2019-03-09T07:54:44.122Z,55.31
2019-03-09T07:55:44.148Z,54.41
2019-03-09T07:56:44.097Z,54.41
2019-03-09T07:57:44.104Z,55.11
2019-03-09T07:58:44.094Z,54.41
2019-03-09T07:59:44.071Z,54.10
2019-03-09T08:00:44.109Z,54.41
2019-03-09T08:01:44.048Z,54.50
2019-03-09T08:02:44.039Z,54.81
2019-03-09T08:03:44.044Z,54.61
2019-03-09T08:04:44.016Z,54.88
2019-03-09T08:05:43.996Z,54.10
2019-03-09T08:06:44.023Z,54.41
2019-03-09T08:07:43.986Z,54.41
2019-03-09T08:08:43.979Z,54.30
2019-03-09T08:09:43.979Z,54.41
2019-03-09T08:10:43.944Z,53.90
2019-03-09T08:11:43.962Z,54.30
2019-03-09T08:12:43.926Z,54.00
2019-03-09T08:13:43.914Z,54.41
2019-03-09T08:14:43.914Z,54.00
2019-03-09T08:15:43.929Z,53.80
2019-03-09T08:16:43.916Z,53.70
2019-03-09T08:17:43.876Z,53.80
2019-03-09T08:18:45.294Z,53.80
2019-03-09T08:19:43.854Z,54.10
2019-03-09T08:20:43.852Z,53.90
2019-03-09T08:21:43.885Z,54.00
2019-03-09T08:22:43.820Z,53.90
2019-03-09T08:23:43.810Z,54.00
2019-03-09T08:24:43.833Z,53.90
2019-03-09T08:25:43.789Z,54.00
2019-03-09T08:26:43.812Z,53.90
2019-03-09T08:27:43.762Z,54.00
2019-03-09T08:28:43.771Z,53.80
2019-03-09T08:29:43.763Z,54.00
2019-03-09T08:30:43.809Z,54.00
2019-03-09T08:31:43.775Z,54.10
2019-03-09T08:32:43.707Z,54.00
2019-03-09T08:33:43.711Z,54.00
2019-03-09T08:34:43.720Z,53.80
2019-03-09T08:35:43.693Z,54.21
2019-03-09T08:36:43.702Z,54.10
2019-03-09T08:37:43.708Z,54.10
2019-03-09T08:38:43.645Z,54.21
2019-03-09T08:39:43.661Z,54.10
2019-03-09T08:40:43.630Z,54.13
2019-03-09T08:41:43.682Z,54.21
2019-03-09T08:42:43.662Z,54.30
2019-03-09T08:43:43.607Z,54.53
2019-03-09T08:44:43.625Z,54.41
2019-03-09T08:45:43.579Z,54.63
2019-03-09T08:46:43.567Z,54.61
2019-03-09T08:47:51.522Z,54.50
2019-03-09T08:48:44.551Z,54.43
2019-03-09T08:49:43.527Z,54.81
2019-03-09T08:50:43.515Z,54.30
2019-03-09T08:51:43.537Z,54.50
2019-03-09T08:52:43.540Z,54.61
2019-03-09T08:53:43.503Z,54.71
2019-03-09T08:54:43.480Z,54.61
2019-03-09T08:55:43.491Z,54.61
2019-03-09T08:56:43.458Z,54.21
2019-03-09T08:57:43.468Z,54.50
2019-03-09T08:58:43.460Z,53.30
2019-03-09T08:59:43.420Z,53.60
2019-03-09T09:00:43.438Z,53.50
2019-03-09T09:01:43.423Z,53.20
2019-03-09T09:02:43.487Z,53.52
2019-03-09T09:03:43.418Z,53.50
2019-03-09T09:04:43.369Z,54.00
2019-03-09T09:05:43.366Z,53.50
2019-03-09T09:06:43.356Z,53.70
2019-03-09T09:07:43.468Z,53.42
2019-03-09T09:08:43.350Z,54.50
2019-03-09T09:09:43.320Z,53.30
2019-03-09T09:10:43.303Z,53.40
2019-03-09T09:11:43.333Z,53.60
2019-03-09T09:12:45.430Z,53.60
2019-03-09T09:13:43.301Z,53.50
2019-03-09T09:14:43.274Z,53.70
2019-03-09T09:15:43.248Z,53.60
2019-03-09T09:16:43.366Z,53.50
2019-03-09T09:17:43.233Z,53.70
2019-03-09T09:18:43.243Z,53.83
2019-03-09T09:19:43.212Z,53.60
2019-03-09T09:20:43.189Z,53.70
2019-03-09T09:21:43.185Z,53.63
2019-03-09T09:22:43.178Z,53.60
2019-03-09T09:23:43.186Z,53.52
2019-03-09T09:24:43.292Z,53.83
2019-03-09T09:25:43.140Z,53.70
2019-03-09T09:26:43.127Z,53.60
2019-03-09T09:27:43.122Z,53.70
2019-03-09T09:28:43.164Z,53.72
2019-03-09T09:29:43.121Z,53.72
2019-03-09T09:30:43.083Z,53.50
2019-03-09T09:31:43.077Z,53.60
2019-03-09T09:32:43.070Z,53.72
2019-03-09T09:33:43.087Z,53.72
2019-03-09T09:34:43.082Z,53.70
2019-03-09T09:35:43.025Z,53.80
2019-03-09T09:36:43.023Z,53.70
2019-03-09T09:37:43.009Z,53.72
2019-03-09T09:38:42.993Z,53.60
2019-03-09T09:39:43.023Z,53.72
2019-03-09T09:40:42.982Z,53.72
2019-03-09T09:41:43.011Z,53.83
2019-03-09T09:42:42.953Z,53.72
2019-03-09T09:43:42.941Z,53.63
2019-03-09T09:44:43.021Z,53.52
2019-03-09T09:45:42.919Z,53.52
2019-03-09T09:46:42.924Z,53.60
2019-03-09T09:47:42.901Z,53.63
2019-03-09T09:48:42.887Z,53.52
2019-03-09T09:49:42.879Z,53.83
2019-03-09T09:50:42.910Z,53.72
2019-03-09T09:51:42.854Z,53.72
2019-03-09T09:52:42.881Z,53.72
2019-03-09T09:53:42.837Z,53.72
2019-03-09T09:54:42.829Z,53.63
2019-03-09T09:55:42.842Z,53.72
2019-03-09T09:56:42.803Z,53.72
2019-03-09T09:57:42.792Z,53.70
2019-03-09T09:58:42.779Z,53.72
2019-03-09T09:59:42.772Z,53.72
2019-03-09T10:00:42.792Z,53.63
2019-03-09T10:01:42.748Z,53.72
2019-03-09T10:02:42.746Z,53.72
2019-03-09T10:03:42.731Z,53.72
2019-03-09T10:04:42.718Z,53.83
2019-03-09T10:05:42.737Z,53.63
2019-03-09T10:06:42.699Z,53.42
2019-03-09T10:07:42.699Z,53.63
2019-03-09T10:08:42.677Z,53.63
2019-03-09T10:09:42.661Z,53.63
2019-03-09T10:10:42.655Z,53.63
2019-03-09T10:11:42.676Z,53.63
2019-03-09T10:12:42.629Z,53.63
2019-03-09T10:13:42.626Z,53.63
2019-03-09T10:14:42.605Z,53.63
2019-03-09T10:15:42.622Z,53.52
2019-03-09T10:16:42.589Z,53.63
2019-03-09T10:17:42.581Z,53.52
2019-03-09T10:18:42.570Z,53.63
2019-03-09T10:19:42.567Z,53.63
2019-03-09T10:20:44.865Z,53.63
2019-03-09T10:21:42.533Z,53.63
2019-03-09T10:22:42.522Z,53.52
2019-03-09T10:23:42.522Z,53.72
2019-03-09T10:24:42.500Z,53.63
2019-03-09T10:25:42.525Z,53.63
2019-03-09T10:26:42.516Z,53.63
2019-03-09T10:27:42.475Z,53.72
2019-03-09T10:28:42.467Z,53.52
2019-03-09T10:29:42.451Z,53.52
2019-03-09T10:30:42.444Z,53.63
2019-03-09T10:31:42.453Z,53.42
2019-03-09T10:32:42.431Z,53.63
2019-03-09T10:33:42.404Z,53.52
2019-03-09T10:34:42.395Z,53.52
2019-03-09T10:35:42.377Z,53.72
2019-03-09T10:36:42.393Z,53.63
2019-03-09T10:37:42.362Z,53.63
2019-03-09T10:38:42.354Z,53.42
2019-03-09T10:39:42.339Z,53.32
2019-03-09T10:40:42.329Z,53.63
2019-03-09T10:41:42.351Z,53.72
2019-03-09T10:42:42.308Z,53.63
2019-03-09T10:43:42.311Z,53.52
2019-03-09T10:44:42.291Z,53.63
2019-03-09T10:45:42.276Z,53.63
2019-03-09T10:46:42.312Z,53.52
2019-03-09T10:47:42.249Z,53.42
2019-03-09T10:48:42.247Z,53.52
2019-03-09T10:49:42.233Z,53.32
2019-03-09T10:50:42.224Z,53.32
2019-03-09T10:51:42.218Z,53.32
2019-03-09T10:52:42.225Z,53.52
2019-03-09T10:53:42.186Z,53.32
2019-03-09T10:54:42.188Z,53.32
2019-03-09T10:55:42.741Z,53.32
2019-03-09T10:56:42.182Z,53.63
2019-03-09T10:57:42.192Z,53.63
2019-03-09T10:58:42.135Z,53.52
2019-03-09T10:59:42.132Z,53.42
2019-03-09T11:00:42.113Z,53.42
2019-03-09T11:01:42.115Z,53.22
2019-03-09T11:02:42.117Z,53.42
2019-03-09T11:03:42.087Z,53.42
2019-03-09T11:04:42.083Z,53.42
2019-03-09T11:05:42.059Z,53.42
2019-03-09T11:06:42.050Z,53.42
2019-03-09T11:07:42.061Z,53.42
2019-03-09T11:08:42.026Z,53.52
2019-03-09T11:09:44.170Z,53.42
2019-03-09T11:10:42.002Z,53.52
2019-03-09T11:11:42.001Z,53.52
2019-03-09T11:12:42.025Z,53.52
2019-03-09T11:13:51.518Z,53.42
2019-03-09T11:14:42.974Z,53.52
2019-03-09T11:15:41.962Z,53.72
2019-03-09T11:16:41.944Z,53.12
2019-03-09T11:17:41.944Z,53.32
2019-03-09T11:18:41.954Z,53.42
2019-03-09T11:19:41.918Z,53.63
2019-03-09T11:20:41.899Z,53.63
2019-03-09T11:21:41.895Z,53.52
2019-03-09T11:22:41.870Z,53.63
2019-03-09T11:23:42.023Z,53.72
2019-03-09T11:24:41.858Z,53.63
2019-03-09T11:25:41.844Z,53.22
2019-03-09T11:26:41.848Z,53.12
2019-03-09T11:27:41.838Z,53.02
2019-03-09T11:28:41.844Z,53.02
2019-03-09T11:29:41.811Z,53.63
2019-03-09T11:30:41.794Z,53.12
2019-03-09T11:31:41.786Z,53.22
2019-03-09T11:32:41.773Z,53.02
2019-03-09T11:33:41.795Z,53.12
2019-03-09T11:34:41.747Z,53.52
2019-03-09T11:35:41.774Z,53.02
2019-03-09T11:36:41.723Z,53.02
2019-03-09T11:37:41.719Z,53.12
2019-03-09T11:38:41.742Z,53.32
2019-03-09T11:39:41.701Z,53.32
2019-03-09T11:40:41.689Z,53.02
2019-03-09T11:41:41.671Z,52.92
2019-03-09T11:42:41.660Z,53.12
2019-03-09T11:43:41.648Z,53.02
2019-03-09T11:44:41.680Z,53.12
2019-03-09T11:45:41.629Z,53.22
2019-03-09T11:46:41.634Z,53.22
2019-03-09T11:47:41.609Z,53.22
2019-03-09T11:48:42.559Z,53.22
2019-03-09T11:49:41.618Z,53.02
2019-03-09T11:50:41.574Z,53.52
2019-03-09T11:51:41.562Z,53.32
2019-03-09T11:52:41.558Z,53.42
2019-03-09T11:53:41.548Z,53.42
2019-03-09T11:54:41.559Z,53.32
2019-03-09T11:55:41.520Z,53.32
2019-03-09T11:56:41.505Z,53.42
2019-03-09T11:57:41.495Z,53.63
2019-03-09T11:58:41.486Z,53.63
2019-03-09T11:59:41.503Z,53.63
2019-03-09T12:00:49.061Z,53.32
2019-03-09T12:01:41.485Z,53.63
2019-03-09T12:02:41.494Z,53.72
2019-03-09T12:03:41.441Z,53.72
2019-03-09T12:04:46.947Z,53.63
2019-03-09T12:05:42.500Z,53.72
2019-03-09T12:06:41.439Z,53.63
2019-03-09T12:07:41.395Z,53.63
2019-03-09T12:08:41.448Z,53.52
2019-03-09T12:09:41.430Z,53.72
2019-03-09T12:10:41.357Z,53.72
2019-03-09T12:11:41.363Z,53.72
2019-03-09T12:12:41.334Z,53.72
2019-03-09T12:13:41.330Z,53.42
2019-03-09T12:14:41.353Z,53.52
2019-03-09T12:15:41.337Z,53.50
2019-03-09T12:16:41.294Z,53.52
2019-03-09T12:17:41.284Z,54.13
2019-03-09T12:18:41.278Z,54.13
2019-03-09T12:19:41.274Z,54.03
2019-03-09T12:20:41.277Z,53.32
2019-03-09T12:21:41.246Z,54.73
2019-03-09T12:22:41.225Z,54.63
2019-03-09T12:23:41.212Z,53.40
2019-03-09T12:24:41.211Z,53.52
2019-03-09T12:25:41.227Z,53.22
2019-03-09T12:26:41.183Z,54.83
2019-03-09T12:27:41.170Z,54.03
2019-03-09T12:28:41.164Z,54.03
2019-03-09T12:29:41.154Z,53.92
2019-03-09T12:30:41.183Z,53.92
2019-03-09T12:31:41.140Z,54.00
2019-03-09T12:32:41.122Z,54.03
2019-03-09T12:33:41.114Z,54.03
2019-03-09T12:34:41.108Z,53.92
2019-03-09T12:35:41.149Z,53.80
2019-03-09T12:36:41.075Z,53.80
2019-03-09T12:37:41.071Z,53.92
2019-03-09T12:38:41.063Z,54.03
2019-03-09T12:39:41.051Z,53.83
2019-03-09T12:40:41.048Z,54.00
2019-03-09T12:41:41.061Z,53.92
2019-03-09T12:42:41.016Z,53.92
2019-03-09T12:43:40.999Z,53.70
2019-03-09T12:44:41.003Z,54.13
2019-03-09T12:45:40.989Z,54.13
2019-03-09T12:46:40.994Z,54.13
2019-03-09T12:47:40.979Z,53.72
2019-03-09T12:48:40.944Z,53.83
2019-03-09T12:49:40.933Z,53.90
2019-03-09T12:50:40.946Z,53.80
2019-03-09T12:51:40.953Z,53.80
2019-03-09T12:52:40.916Z,53.80